createdAt,value
2023-02-11T00:02:09.177Z,17.97
2023-02-11T00:04:35.840Z,17.50
2023-02-11T00:07:02.840Z,15.77
2023-02-11T00:09:31.767Z,16.60
2023-02-11T00:11:58.393Z,14.97
2023-02-11T00:14:25.089Z,15.50
2023-02-11T00:16:51.674Z,15.60
2023-02-11T00:19:18.156Z,14.93
2023-02-11T00:21:44.589Z,15.53
2023-02-11T00:24:11.070Z,15.03
2023-02-11T00:26:41.232Z,16.70
2023-02-11T00:29:10.827Z,15.27
2023-02-11T00:31:40.773Z,14.53
2023-02-11T00:34:10.386Z,15.43
2023-02-11T00:36:38.974Z,16.43
2023-02-11T00:39:05.476Z,16.73
2023-02-11T00:41:31.951Z,16.73
2023-02-11T00:44:00.285Z,16.10
2023-02-11T00:46:26.838Z,17.00
2023-02-11T00:48:57.575Z,15.80
2023-02-11T00:51:25.659Z,16.17
2023-02-11T00:53:52.319Z,16.93
2023-02-11T00:56:19.198Z,16.60
2023-02-11T00:58:45.764Z,17.63
2023-02-11T01:01:13.233Z,15.93
2023-02-11T01:03:41.086Z,17.37
2023-02-11T01:06:11.174Z,17.37
2023-02-11T01:08:40.775Z,17.57
2023-02-11T01:11:13.149Z,17.30
2023-02-11T01:13:40.813Z,16.50
2023-02-11T01:16:08.592Z,16.93
2023-02-11T01:18:35.978Z,17.20
2023-02-11T01:21:02.568Z,15.53
2023-02-11T01:23:29.162Z,15.80
2023-02-11T01:25:56.461Z,16.30
2023-02-11T01:28:25.381Z,16.73
2023-02-11T01:30:52.652Z,17.10
2023-02-11T01:33:19.595Z,16.17
2023-02-11T01:35:46.254Z,16.37
2023-02-11T01:38:20.726Z,15.87
2023-02-11T01:40:49.168Z,16.17
2023-02-11T01:43:15.859Z,16.33
2023-02-11T01:45:46.201Z,16.80
2023-02-11T01:48:20.753Z,16.97
2023-02-11T01:50:51.834Z,16.67
2023-02-11T01:53:37.792Z,16.43
2023-02-11T01:56:24.248Z,18.20
2023-02-11T01:58:52.325Z,16.93
2023-02-11T02:01:24.291Z,17.47
2023-02-11T02:03:56.639Z,16.67
2023-02-11T02:06:31.557Z,15.73
2023-02-11T02:09:09.327Z,15.23
2023-02-11T02:11:36.628Z,16.50
2023-02-11T02:14:03.733Z,16.47
2023-02-11T02:16:34.766Z,16.37
2023-02-11T02:19:23.184Z,16.10
2023-02-11T02:21:58.772Z,16.80
2023-02-11T02:24:34.068Z,16.83
2023-02-11T02:27:19.123Z,15.90
2023-02-11T02:30:03.900Z,16.97
2023-02-11T02:32:51.853Z,14.87
2023-02-11T02:35:35.091Z,17.63
2023-02-11T02:38:19.257Z,18.00
2023-02-11T02:40:54.937Z,16.03
2023-02-11T02:43:23.696Z,16.00
2023-02-11T02:45:50.439Z,16.13
2023-02-11T02:48:34.771Z,17.80
2023-02-11T02:51:26.355Z,15.10
2023-02-11T02:54:17.821Z,16.83
2023-02-11T02:57:21.576Z,16.30
2023-02-11T03:00:09.943Z,16.03
2023-02-11T03:02:48.548Z,13.87
2023-02-11T03:05:52.443Z,17.07
2023-02-11T03:08:44.219Z,15.40
2023-02-11T03:11:12.495Z,15.30
2023-02-11T03:13:40.768Z,15.27
2023-02-11T03:16:13.555Z,15.57
2023-02-11T03:18:44.367Z,16.30
2023-02-11T03:21:12.107Z,15.30
2023-02-11T03:23:50.834Z,15.67
2023-02-11T03:26:49.812Z,15.53
2023-02-11T03:29:41.200Z,15.23
2023-02-11T03:32:22.243Z,14.57
2023-02-11T03:34:54.845Z,15.67
2023-02-11T03:37:31.922Z,15.13
2023-02-11T03:40:06.650Z,15.07
2023-02-11T03:42:39.080Z,15.33
2023-02-11T03:45:10.811Z,15.00
2023-02-11T03:47:40.020Z,15.47
2023-02-11T03:50:09.023Z,16.27
2023-02-11T03:52:37.906Z,15.47
2023-02-11T03:55:11.192Z,14.40
2023-02-11T03:57:38.539Z,14.50
2023-02-11T04:00:06.013Z,14.33
2023-02-11T04:02:35.832Z,14.13
2023-02-11T04:05:03.319Z,15.23
2023-02-11T04:07:29.785Z,14.93
2023-02-11T04:09:56.296Z,15.33
2023-02-11T04:12:22.789Z,15.90
2023-02-11T04:14:51.369Z,17.07
2023-02-11T04:17:18.345Z,15.27
2023-02-11T04:19:44.809Z,16.57
2023-02-11T04:22:12.095Z,16.10
2023-02-11T04:24:38.658Z,16.27
2023-02-11T04:27:05.224Z,17.93
2023-02-11T04:29:32.112Z,16.10
2023-02-11T04:31:58.670Z,16.50
2023-02-11T04:34:25.164Z,17.33
2023-02-11T04:36:54.851Z,17.03
2023-02-11T04:39:24.140Z,14.90
2023-02-11T04:41:52.953Z,16.93
2023-02-11T04:44:19.500Z,16.40
2023-02-11T04:46:46.004Z,16.03
2023-02-11T04:49:17.000Z,16.83
2023-02-11T04:51:46.506Z,16.10
2023-02-11T04:54:14.676Z,16.90
2023-02-11T04:56:41.156Z,15.53
2023-02-11T04:59:07.789Z,16.07
2023-02-11T05:01:34.578Z,17.50
2023-02-11T05:04:01.239Z,18.10
2023-02-11T05:06:27.758Z,16.23
2023-02-11T05:08:57.372Z,17.00
2023-02-11T05:11:25.666Z,15.43
2023-02-11T05:13:54.434Z,17.33
2023-02-11T05:16:21.049Z,15.93
2023-02-11T05:18:47.662Z,15.40
2023-02-11T05:21:18.287Z,16.80
2023-02-11T05:23:45.655Z,15.27
2023-02-11T05:26:12.622Z,15.87
2023-02-11T05:28:39.663Z,15.40
2023-02-11T05:31:07.124Z,16.87
2023-02-11T05:33:33.942Z,16.23
2023-02-11T05:36:07.446Z,16.20
2023-02-11T05:38:34.499Z,15.70
2023-02-11T05:41:01.911Z,16.13
2023-02-11T05:43:28.385Z,16.47
2023-02-11T05:45:58.280Z,15.93
2023-02-11T05:48:29.222Z,17.67
2023-02-11T05:50:58.826Z,18.23
2023-02-11T05:53:29.110Z,17.03
2023-02-11T05:55:58.535Z,16.23
2023-02-11T05:58:28.576Z,16.93
2023-02-11T06:00:58.034Z,17.17
2023-02-11T06:03:26.108Z,16.70
2023-02-11T06:06:01.352Z,16.40
2023-02-11T06:08:27.880Z,15.63
2023-02-11T06:10:56.347Z,14.93
2023-02-11T06:13:22.789Z,16.57
2023-02-11T06:15:59.321Z,17.03
2023-02-11T06:18:29.566Z,16.20
2023-02-11T06:20:56.553Z,16.33
2023-02-11T06:23:23.192Z,17.17
2023-02-11T06:25:50.288Z,17.53
2023-02-11T06:28:17.078Z,16.60
2023-02-11T06:30:43.614Z,16.07
2023-02-11T06:33:10.168Z,16.90
2023-02-11T06:35:39.020Z,16.23
2023-02-11T06:38:05.496Z,16.93
2023-02-11T06:40:31.948Z,18.13
2023-02-11T06:42:58.393Z,16.80
2023-02-11T06:45:27.895Z,16.67
2023-02-11T06:47:56.774Z,17.67
2023-02-11T06:50:23.292Z,19.00
2023-02-11T06:52:49.806Z,17.33
2023-02-11T06:55:16.266Z,16.47
2023-02-11T06:57:42.775Z,15.40
2023-02-11T07:00:09.923Z,16.27
2023-02-11T07:02:36.705Z,14.97
2023-02-11T07:05:04.963Z,16.10
2023-02-11T07:07:34.085Z,14.67
2023-02-11T07:10:00.967Z,15.20
2023-02-11T07:12:27.462Z,15.50
2023-02-11T07:14:55.810Z,15.10
2023-02-11T07:17:22.390Z,12.67
2023-02-11T07:19:48.959Z,15.60
2023-02-11T07:22:15.673Z,15.90
2023-02-11T07:24:42.225Z,15.50
2023-02-11T07:27:08.702Z,15.50
2023-02-11T07:29:35.173Z,14.97
2023-02-11T07:32:01.684Z,14.23
2023-02-11T07:34:28.185Z,14.47
2023-02-11T07:36:54.816Z,14.40
2023-02-11T07:39:22.513Z,14.43
2023-02-11T07:41:49.354Z,15.43
2023-02-11T07:44:15.858Z,17.10
2023-02-11T07:46:45.685Z,16.80
2023-02-11T07:49:12.778Z,14.60
2023-02-11T07:51:39.333Z,13.57
2023-02-11T07:54:05.936Z,13.73
2023-02-11T07:56:33.081Z,13.90
2023-02-11T07:59:03.262Z,14.17
2023-02-11T08:01:30.724Z,12.83
2023-02-11T08:03:59.068Z,13.37
2023-02-11T08:06:31.561Z,14.03
2023-02-11T08:08:58.763Z,12.93
2023-02-11T08:11:28.538Z,15.60
2023-02-11T08:13:56.998Z,13.67
2023-02-11T08:16:25.690Z,14.17
2023-02-11T08:18:55.851Z,14.37
2023-02-11T08:21:22.382Z,13.60
2023-02-11T08:23:49.746Z,13.93
2023-02-11T08:26:22.260Z,14.70
2023-02-11T08:28:50.353Z,13.83
2023-02-11T08:31:34.349Z,12.90
2023-02-11T08:34:02.393Z,13.93
2023-02-11T08:36:32.968Z,16.20
2023-02-11T08:39:17.495Z,16.63
2023-02-11T08:41:46.628Z,15.33
2023-02-11T08:44:14.045Z,18.63
2023-02-11T08:46:40.587Z,17.40
2023-02-11T08:49:07.195Z,17.60
2023-02-11T08:51:33.736Z,16.20
2023-02-11T08:54:00.577Z,14.97
2023-02-11T08:56:27.985Z,15.10
2023-02-11T08:58:56.473Z,14.27
2023-02-11T09:01:28.932Z,13.93
2023-02-11T09:03:59.251Z,14.03
2023-02-11T09:06:29.547Z,14.13
2023-02-11T09:08:58.871Z,14.80
2023-02-11T09:11:31.234Z,14.03
2023-02-11T09:13:59.466Z,13.20
2023-02-11T09:16:32.736Z,13.03
2023-02-11T09:19:00.851Z,12.57
2023-02-11T09:21:28.569Z,13.13
2023-02-11T09:23:59.574Z,13.73
2023-02-11T09:26:31.712Z,13.43
2023-02-11T09:28:59.036Z,12.27
2023-02-11T09:31:29.210Z,12.68
2023-02-11T09:34:00.966Z,12.57
2023-02-11T09:36:29.896Z,14.05
2023-02-11T09:39:01.293Z,12.70
2023-02-11T09:41:56.912Z,11.98
2023-02-11T09:44:28.394Z,13.05
2023-02-11T09:47:01.556Z,13.45
2023-02-11T09:49:44.352Z,14.02
2023-02-11T09:52:26.442Z,12.18
2023-02-11T09:55:00.275Z,11.95
2023-02-11T09:57:31.789Z,14.38
2023-02-11T09:59:58.423Z,13.80
2023-02-11T10:02:44.991Z,13.35
2023-02-11T10:05:28.444Z,13.88
2023-02-11T10:08:09.823Z,14.52
2023-02-11T10:11:01.403Z,13.38
2023-02-11T10:13:57.657Z,15.68
2023-02-11T10:16:42.849Z,14.18
2023-02-11T10:19:38.733Z,14.85
2023-02-11T10:22:31.467Z,14.30
2023-02-11T10:25:00.307Z,14.55
2023-02-11T10:27:35.394Z,15.57
2023-02-11T10:30:11.037Z,15.88
2023-02-11T10:32:52.657Z,15.90
2023-02-11T10:35:22.332Z,16.38
2023-02-11T10:37:49.708Z,15.05
2023-02-11T10:40:19.506Z,16.08
2023-02-11T10:42:49.171Z,15.45
2023-02-11T10:45:22.474Z,15.82
2023-02-11T10:47:48.974Z,17.58
2023-02-11T10:50:26.078Z,17.95
2023-02-11T10:52:52.653Z,16.27
2023-02-11T10:55:25.827Z,14.57
2023-02-11T10:58:03.040Z,15.65
2023-02-11T11:00:39.124Z,17.33
2023-02-11T11:03:18.552Z,17.00
2023-02-11T11:06:02.124Z,17.33
2023-02-11T11:08:41.734Z,16.15
2023-02-11T11:11:11.736Z,17.25
2023-02-11T11:13:40.643Z,17.25
2023-02-11T11:16:13.141Z,16.30
2023-02-11T11:18:51.504Z,16.65
2023-02-11T11:21:19.408Z,17.27
2023-02-11T11:23:58.332Z,15.40
2023-02-11T11:26:40.485Z,15.60
2023-02-11T11:29:16.078Z,16.55
2023-02-11T11:31:57.768Z,15.85
2023-02-11T11:34:31.274Z,15.85
2023-02-11T11:37:00.598Z,16.00
2023-02-11T11:39:31.367Z,15.80
2023-02-11T11:42:00.338Z,16.58
2023-02-11T11:44:36.963Z,17.45
2023-02-11T11:47:12.521Z,17.33
2023-02-11T11:49:56.129Z,15.77
2023-02-11T11:52:22.570Z,15.60
2023-02-11T11:55:00.586Z,17.02
2023-02-11T11:57:29.794Z,16.42
2023-02-11T11:59:59.452Z,15.85
2023-02-11T12:03:02.777Z,17.33
2023-02-11T12:05:52.641Z,15.73
2023-02-11T12:08:34.956Z,14.73
2023-02-11T12:11:33.476Z,16.20
2023-02-11T12:13:59.876Z,15.82
2023-02-11T12:16:38.149Z,16.85
2023-02-11T12:19:27.563Z,16.73
2023-02-11T12:22:09.542Z,17.15
2023-02-11T12:24:56.641Z,15.68
2023-02-11T12:27:50.663Z,15.93
2023-02-11T12:30:29.358Z,15.90
2023-02-11T12:33:40.875Z,15.73
2023-02-11T12:36:28.537Z,16.10
2023-02-11T12:39:22.351Z,16.65
2023-02-11T12:42:30.906Z,15.95
2023-02-11T12:45:28.554Z,15.00
2023-02-11T12:48:34.143Z,15.38
2023-02-11T12:51:28.877Z,16.48
2023-02-11T12:54:10.800Z,17.60
2023-02-11T12:56:50.914Z,15.38
2023-02-11T12:59:38.299Z,20.88
2023-02-11T13:02:17.582Z,15.82
2023-02-11T13:04:51.100Z,16.15
2023-02-11T13:07:31.107Z,17.92
2023-02-11T13:10:07.719Z,16.92
2023-02-11T13:12:58.975Z,18.75
2023-02-11T13:15:31.425Z,18.67
2023-02-11T13:18:44.072Z,16.73
2023-02-11T13:21:17.049Z,19.80
2023-02-11T13:23:51.594Z,17.45
2023-02-11T13:26:33.836Z,18.33
2023-02-11T13:29:38.173Z,19.63
2023-02-11T13:32:14.904Z,24.08
2023-02-11T13:34:41.589Z,19.10
2023-02-11T13:37:30.713Z,18.95
2023-02-11T13:40:06.214Z,19.27
2023-02-11T13:42:34.916Z,18.20
2023-02-11T13:45:01.601Z,19.27
2023-02-11T13:47:43.909Z,17.70
2023-02-11T13:50:23.959Z,18.85
2023-02-11T13:53:02.221Z,18.33
2023-02-11T13:55:30.435Z,18.35
2023-02-11T13:58:06.077Z,17.70
2023-02-11T14:00:35.723Z,16.08
2023-02-11T14:03:30.204Z,11.98
2023-02-11T14:06:40.131Z,17.08
2023-02-11T14:09:36.692Z,17.67
2023-02-11T14:12:24.347Z,17.52
2023-02-11T14:15:07.892Z,18.20
2023-02-11T14:17:34.932Z,16.73
2023-02-11T14:20:04.666Z,16.23
2023-02-11T14:22:44.135Z,16.27
2023-02-11T14:25:22.892Z,16.38
2023-02-11T14:28:21.640Z,18.02
2023-02-11T14:31:11.323Z,21.33
2023-02-11T14:33:53.300Z,31.17
2023-02-11T14:36:43.741Z,16.40
2023-02-11T14:39:18.981Z,19.83
2023-02-11T14:41:48.839Z,17.85
2023-02-11T14:44:20.054Z,19.08
2023-02-11T14:46:48.960Z,19.67
2023-02-11T14:49:31.083Z,18.20
2023-02-11T14:52:07.461Z,17.80
2023-02-11T14:54:35.236Z,17.13
2023-02-11T14:57:11.995Z,14.73
2023-02-11T14:59:38.620Z,16.15
2023-02-11T15:02:21.428Z,14.32
2023-02-11T15:04:47.946Z,17.48
2023-02-11T15:07:15.560Z,14.00
2023-02-11T15:09:45.957Z,16.25
2023-02-11T15:12:19.932Z,14.10
2023-02-11T15:14:53.193Z,12.65
2023-02-11T15:17:23.662Z,13.52
2023-02-11T15:19:55.329Z,12.50
2023-02-11T15:22:36.853Z,10.52
2023-02-11T15:25:17.280Z,10.88
2023-02-11T15:28:01.053Z,12.25
2023-02-11T15:30:35.295Z,13.68
2023-02-11T15:33:05.430Z,12.10
2023-02-11T15:35:42.764Z,12.50
2023-02-11T15:38:12.746Z,12.65
2023-02-11T15:40:39.236Z,11.40
2023-02-11T15:43:08.094Z,12.02
2023-02-11T15:45:35.749Z,12.68
2023-02-11T15:48:20.211Z,12.07
2023-02-11T15:51:03.226Z,13.68
2023-02-11T15:53:43.107Z,13.57
2023-02-11T15:56:19.617Z,13.73
2023-02-11T15:58:49.432Z,14.25
2023-02-11T16:01:16.116Z,12.70
2023-02-11T16:03:43.873Z,13.43
2023-02-11T16:06:16.312Z,14.18
2023-02-11T16:08:43.333Z,14.32
2023-02-11T16:11:26.413Z,14.88
2023-02-11T16:13:53.516Z,17.30
2023-02-11T16:16:24.529Z,16.20
2023-02-11T16:19:04.357Z,15.40
2023-02-11T16:21:39.053Z,15.48
2023-02-11T16:24:08.054Z,15.80
2023-02-11T16:26:43.141Z,14.13
2023-02-11T16:29:25.200Z,16.65
2023-02-11T16:31:54.044Z,14.70
2023-02-11T16:34:23.127Z,15.27
2023-02-11T16:36:51.019Z,15.25
2023-02-11T16:39:21.597Z,15.57
2023-02-11T16:41:50.525Z,16.50
2023-02-11T16:44:17.867Z,16.55
2023-02-11T16:46:44.775Z,15.73
2023-02-11T16:49:30.028Z,15.93
2023-02-11T16:52:03.323Z,15.57
2023-02-11T16:54:30.290Z,16.48
2023-02-11T16:56:57.031Z,17.20
2023-02-11T16:59:24.058Z,16.45
2023-02-11T17:01:54.613Z,17.00
2023-02-11T17:04:24.988Z,15.40
2023-02-11T17:06:53.979Z,16.38
2023-02-11T17:09:27.758Z,16.13
2023-02-11T17:11:55.474Z,16.42
2023-02-11T17:14:21.919Z,17.33
2023-02-11T17:16:48.793Z,15.80
2023-02-11T17:19:19.648Z,15.82
2023-02-11T17:21:47.783Z,18.75
2023-02-11T17:24:15.115Z,16.33
2023-02-11T17:26:43.907Z,16.70
2023-02-11T17:29:13.637Z,16.52
2023-02-11T17:31:41.049Z,16.25
2023-02-11T17:34:08.055Z,18.52
2023-02-11T17:36:34.929Z,17.20
2023-02-11T17:39:01.401Z,18.05
2023-02-11T17:41:28.209Z,18.42
2023-02-11T17:43:58.064Z,20.00
2023-02-11T17:46:24.742Z,18.45
2023-02-11T17:48:53.144Z,19.38
2023-02-11T17:51:27.240Z,17.33
2023-02-11T17:53:54.107Z,16.75
2023-02-11T17:56:23.341Z,18.00
2023-02-11T17:58:49.897Z,16.85
2023-02-11T18:01:16.706Z,16.35
2023-02-11T18:03:43.257Z,16.73
2023-02-11T18:06:09.815Z,18.02
2023-02-11T18:08:36.478Z,17.48
2023-02-11T18:11:12.878Z,16.88
2023-02-11T18:13:42.359Z,17.52
2023-02-11T18:16:08.958Z,15.95
2023-02-11T18:18:35.730Z,15.95
2023-02-11T18:21:08.553Z,16.15
2023-02-11T18:23:35.426Z,15.38
2023-02-11T18:26:07.991Z,17.35
2023-02-11T18:28:34.620Z,15.80
2023-02-11T18:31:03.224Z,14.98
2023-02-11T18:33:33.120Z,15.93
2023-02-11T18:35:59.626Z,15.55
2023-02-11T18:38:26.176Z,14.82
2023-02-11T18:40:52.759Z,14.32
2023-02-11T18:43:20.085Z,14.05
2023-02-11T18:45:47.982Z,15.10
2023-02-11T18:48:20.913Z,15.65
2023-02-11T18:50:50.090Z,15.18
2023-02-11T18:53:43.488Z,15.43
2023-02-11T18:56:20.639Z,14.38
2023-02-11T18:58:47.796Z,14.98
2023-02-11T19:01:22.766Z,14.85
2023-02-11T19:03:49.827Z,14.77
2023-02-11T19:06:19.694Z,14.60
2023-02-11T19:08:49.187Z,15.20
2023-02-11T19:11:17.885Z,13.50
2023-02-11T19:13:44.754Z,15.05
2023-02-11T19:16:13.941Z,15.88
2023-02-11T19:18:42.798Z,13.07
2023-02-11T19:21:11.144Z,15.10
2023-02-11T19:23:38.163Z,15.10
2023-02-11T19:26:07.474Z,14.73
2023-02-11T19:28:37.474Z,15.38
2023-02-11T19:31:08.873Z,15.80
2023-02-11T19:33:35.651Z,15.47
2023-02-11T19:36:07.860Z,14.23
2023-02-11T19:38:38.199Z,14.33
2023-02-11T19:41:07.746Z,16.40
2023-02-11T19:43:39.799Z,15.43
2023-02-11T19:49:36.864Z,13.93
2023-02-11T19:52:05.639Z,15.87
2023-02-11T19:54:32.205Z,14.10
2023-02-11T19:56:58.941Z,16.40
2023-02-11T19:59:25.719Z,16.13
2023-02-11T20:01:53.755Z,17.20
2023-02-11T20:04:20.358Z,14.70
2023-02-11T20:06:49.714Z,14.90
2023-02-11T20:09:16.245Z,13.90
2023-02-11T20:11:43.023Z,14.30
2023-02-11T20:14:12.614Z,12.80
2023-02-11T20:16:48.065Z,13.77
2023-02-11T20:19:20.280Z,13.40
2023-02-11T20:21:48.699Z,15.15
2023-02-11T20:24:16.848Z,13.97
2023-02-11T20:26:45.218Z,13.93
2023-02-11T20:29:12.136Z,13.43
2023-02-11T20:31:38.878Z,13.13
2023-02-11T20:34:08.469Z,14.20
2023-02-11T20:36:39.153Z,13.20
2023-02-11T20:39:06.478Z,13.93
2023-02-11T20:41:41.318Z,13.77
2023-02-11T20:44:11.923Z,13.70
2023-02-11T20:46:42.926Z,14.83
2023-02-11T20:49:14.121Z,14.90
2023-02-11T20:51:40.712Z,15.07
2023-02-11T20:54:15.856Z,15.13
2023-02-11T20:56:42.601Z,14.70
2023-02-11T20:59:09.706Z,13.73
2023-02-11T21:01:44.664Z,14.23
2023-02-11T21:04:14.498Z,13.00
2023-02-11T21:06:44.747Z,15.60
2023-02-11T21:09:14.874Z,16.13
2023-02-11T21:11:41.931Z,15.30
2023-02-11T21:14:10.270Z,14.97
2023-02-11T21:16:40.298Z,16.17
2023-02-11T21:19:07.098Z,14.27
2023-02-11T21:21:36.284Z,15.40
2023-02-11T21:24:03.254Z,14.73
2023-02-11T21:26:29.751Z,14.20
2023-02-11T21:28:56.333Z,15.43
2023-02-11T21:31:26.747Z,13.47
2023-02-11T21:33:56.879Z,14.93
2023-02-11T21:36:24.335Z,16.63
2023-02-11T21:38:51.202Z,15.17
2023-02-11T21:41:21.162Z,15.37
2023-02-11T21:43:48.091Z,15.83
2023-02-11T21:46:16.041Z,17.13
2023-02-11T21:48:43.380Z,17.23
2023-02-11T21:51:14.008Z,17.27
2023-02-11T21:53:40.491Z,17.43
2023-02-11T21:56:14.189Z,15.03
2023-02-11T21:58:40.778Z,16.80
2023-02-11T22:01:16.260Z,16.30
2023-02-11T22:03:43.298Z,15.87
2023-02-11T22:06:12.768Z,16.80
2023-02-11T22:08:40.050Z,15.60
2023-02-11T22:11:10.703Z,16.90
2023-02-11T22:13:42.283Z,16.40
2023-02-11T22:16:14.560Z,15.93
2023-02-11T22:18:41.945Z,16.47
2023-02-11T22:21:16.984Z,17.10
2023-02-11T22:23:44.481Z,16.03
2023-02-11T22:26:16.185Z,16.27
2023-02-11T22:28:43.447Z,15.77
2023-02-11T22:31:15.701Z,14.43
2023-02-11T22:33:42.749Z,14.10
2023-02-11T22:36:18.727Z,15.30
2023-02-11T22:38:45.503Z,15.83
2023-02-11T22:41:12.615Z,16.50
2023-02-11T22:43:43.317Z,15.73
2023-02-11T22:46:12.493Z,15.67
2023-02-11T22:48:43.116Z,17.30
2023-02-11T22:51:14.530Z,17.40
2023-02-11T22:53:42.254Z,15.40
2023-02-11T22:56:15.525Z,14.10
2023-02-11T22:58:42.861Z,15.17
2023-02-11T23:01:13.256Z,14.60
2023-02-11T23:03:44.605Z,15.03
2023-02-11T23:06:12.124Z,14.60
2023-02-11T23:08:46.117Z,16.07
2023-02-11T23:11:21.835Z,14.97
2023-02-11T23:13:50.472Z,16.27
2023-02-11T23:16:22.847Z,16.23
2023-02-11T23:18:50.723Z,16.00
2023-02-11T23:21:23.218Z,15.33
2023-02-11T23:23:54.697Z,14.93
2023-02-11T23:26:21.594Z,16.87
2023-02-11T23:28:48.594Z,17.33
2023-02-11T23:31:24.485Z,16.07
2023-02-11T23:33:51.719Z,16.73
2023-02-11T23:36:19.909Z,18.03
2023-02-11T23:38:47.164Z,17.40
2023-02-11T23:41:14.542Z,18.63
2023-02-11T23:43:44.308Z,18.47
2023-02-11T23:46:14.747Z,17.43
2023-02-11T23:48:44.232Z,16.73
2023-02-11T23:51:14.125Z,17.40
2023-02-11T23:53:42.761Z,16.57
2023-02-11T23:56:13.253Z,17.97
2023-02-11T23:58:39.738Z,16.57
